Time;durP1;ratioP1;P1;durP2;ratioP2;P2;SDS_P1;SDS_P2;PMS_P1;PMS_P2;Temp;Humidity;BMP_temperature;BMP_pressure;BME280_temperature;BME280_humidity;BME280_pressure;Samples;Min_cycle;Max_cycle;Signal;HPM_P1;HPM_P2
2023/01/14 00:01:25;;;;;;;13.25;3.70;;;8.10;99.90;;;-146.68;100.00;58542.28;4862100;29;20079;-77
2023/01/14 00:03:54;;;;;;;10.73;3.25;;;8.10;99.90;;;-146.68;100.00;58542.28;4846676;29;20409;-78
2023/01/14 00:06:24;;;;;;;10.63;4.80;;;9.60;99.90;;;-146.68;100.00;58542.28;4846321;29;20059;-77
2023/01/14 00:08:58;;;;;;;16.23;4.03;;;8.00;99.90;;;-146.68;100.00;58542.28;4846887;29;20582;-79
2023/01/14 00:14:21;;;;;;;10.10;3.90;;;8.90;99.90;;;-146.68;100.00;58542.28;4861673;29;20049;-79
2023/01/14 00:16:50;;;;;;;7.35;3.22;;;7.90;99.90;;;-146.68;100.00;58542.28;4880641;29;20734;-78
2023/01/14 00:19:19;;;;;;;14.30;4.18;;;9.10;99.90;;;-146.68;100.00;58542.28;4864474;29;20052;-78
2023/01/14 00:21:46;;;;;;;12.55;3.58;;;7.90;99.90;;;-146.68;100.00;58542.28;4879916;29;20570;-79
2023/01/14 00:24:16;;;;;;;16.42;3.65;;;8.00;99.90;;;-146.68;100.00;58542.28;4880295;29;20063;-78
2023/01/14 00:26:43;;;;;;;11.18;3.17;;;7.80;99.90;;;-146.68;100.00;58542.28;4881198;29;20144;-79
2023/01/14 00:29:32;;;;;;;11.77;4.43;;;7.80;99.90;;;-146.68;100.00;58542.28;4864404;29;20053;-79
2023/01/14 00:32:03;;;;;;;7.78;2.70;;;7.90;99.90;;;-146.68;100.00;58542.28;4863390;29;20868;-78
2023/01/14 00:34:32;;;;;;;8.23;3.20;;;7.80;99.90;;;-146.68;100.00;58542.28;4827518;29;20113;-79
2023/01/14 00:37:00;;;;;;;10.33;2.93;;;7.90;99.90;;;-146.68;100.00;58542.28;4828135;29;20117;-79
2023/01/14 00:39:27;;;;;;;12.60;3.17;;;8.70;99.90;;;-146.68;100.00;58542.28;4828369;29;20053;-79
2023/01/14 00:41:54;;;;;;;8.75;2.90;;;9.00;99.90;;;-146.68;100.00;58542.28;4861080;29;20049;-79
2023/01/14 00:44:21;;;;;;;22.17;4.45;;;8.00;99.90;;;-146.68;100.00;58542.28;4876401;29;20056;-79
2023/01/14 00:46:49;;;;;;;12.70;3.22;;;7.70;99.90;;;-146.68;100.00;58542.28;4876534;29;20619;-79
2023/01/14 00:49:22;;;;;;;8.23;3.92;;;7.70;99.90;;;-146.68;100.00;58542.28;4861243;29;20486;-78
2023/01/14 00:51:50;;;;;;;10.73;3.45;;;7.70;99.90;;;-146.68;100.00;58542.28;4876415;29;20049;-78
2023/01/14 00:54:17;;;;;;;9.05;3.63;;;7.60;99.90;;;-146.68;100.00;58542.28;4859626;29;20054;-79
2023/01/14 00:56:45;;;;;;;12.93;2.92;;;7.70;99.90;;;-146.68;100.00;58542.28;4827336;29;20144;-79
2023/01/14 00:59:22;;;;;;;10.32;3.70;;;7.80;99.90;;;-146.68;100.00;58542.28;4827792;29;20049;-79
2023/01/14 01:01:51;;;;;;;11.02;3.25;;;7.60;99.90;;;-146.68;100.00;58542.28;4839979;29;20134;-79
2023/01/14 01:04:19;;;;;;;14.60;4.82;;;7.70;99.90;;;-146.68;100.00;58542.28;4845735;29;20049;-78
2023/01/14 01:06:46;;;;;;;12.27;3.88;;;7.60;99.90;;;-146.68;100.00;58542.28;4845314;29;20680;-80
2023/01/14 01:09:13;;;;;;;15.02;4.45;;;7.60;99.90;;;-146.68;100.00;58542.28;4845225;29;20049;-77
2023/01/14 01:11:40;;;;;;;12.10;3.25;;;9.20;99.90;;;-146.68;100.00;58542.28;4859137;29;20141;-77
2023/01/14 01:14:09;;;;;;;13.23;3.47;;;8.50;99.90;;;-146.68;100.00;58542.28;4860447;29;20049;-78
2023/01/14 01:16:36;;;;;;;13.27;3.17;;;7.00;99.90;;;-146.68;100.00;58542.28;4845371;29;20122;-78
2023/01/14 01:19:05;;;;;;;10.25;3.28;;;7.60;99.90;;;-146.68;100.00;58542.28;4860697;29;20033;-79
2023/01/14 01:21:32;;;;;;;10.30;2.97;;;7.40;99.90;;;-146.68;100.00;58542.28;4844906;29;20388;-78
2023/01/14 01:23:59;;;;;;;13.15;3.58;;;7.40;99.90;;;-146.68;100.00;58542.28;4854246;29;20060;-79
2023/01/14 01:26:26;;;;;;;14.07;3.55;;;7.40;99.90;;;-146.68;100.00;58542.28;4875523;29;20081;-80
2023/01/14 01:28:57;;;;;;;11.90;3.40;;;9.00;99.90;;;-146.68;100.00;58542.28;4875497;29;20049;-79
2023/01/14 01:31:27;;;;;;;16.58;6.03;;;7.30;99.90;;;-146.68;100.00;58542.28;4866045;29;20467;-79
2023/01/14 01:33:54;;;;;;;16.17;3.22;;;7.50;99.90;;;-146.68;100.00;58542.28;4840796;29;20503;-79
2023/01/14 01:36:27;;;;;;;9.15;3.60;;;7.40;99.90;;;-146.68;100.00;58542.28;4856231;29;20049;-79
2023/01/14 01:38:55;;;;;;;13.88;3.60;;;7.30;99.90;;;-146.68;100.00;58542.28;4856622;29;20506;-79
2023/01/14 01:41:26;;;;;;;14.00;4.53;;;7.20;99.90;;;-146.68;100.00;58542.28;4856214;29;20503;-79
2023/01/14 01:44:28;;;;;;;12.57;3.90;;;7.30;99.90;;;-146.68;100.00;58542.28;4841188;29;20143;-79
2023/01/14 01:46:55;;;;;;;18.67;3.92;;;8.80;99.90;;;-146.68;100.00;58542.28;4856269;29;20148;-80
2023/01/14 01:49:28;;;;;;;12.77;3.95;;;8.50;99.90;;;-146.68;100.00;58542.28;4856872;29;20809;-79
2023/01/14 01:52:18;;;;;;;11.73;3.22;;;7.30;99.90;;;-146.68;100.00;58542.28;4840887;29;20053;-79
2023/01/14 01:54:52;;;;;;;20.80;5.65;;;7.40;99.90;;;-146.68;100.00;58542.28;4840127;29;20117;-79
2023/01/14 01:57:19;;;;;;;10.73;3.22;;;7.30;99.90;;;-146.68;100.00;58542.28;4826470;29;20061;-78
2023/01/14 01:59:55;;;;;;;15.30;4.80;;;7.20;99.90;;;-146.68;100.00;58542.28;4856010;29;20534;-79
2023/01/14 02:02:24;;;;;;;15.50;3.63;;;7.30;99.90;;;-146.68;100.00;58542.28;4843818;29;20049;-79
2023/01/14 02:04:52;;;;;;;14.07;4.13;;;7.30;99.90;;;-146.68;100.00;58542.28;4860248;29;20091;-80
2023/01/14 02:07:25;;;;;;;14.82;3.35;;;9.00;99.90;;;-146.68;100.00;58542.28;4860535;29;20059;-79
2023/01/14 02:10:05;;;;;;;11.52;3.00;;;7.40;99.90;;;-146.68;100.00;58542.28;4874922;29;20059;-80
2023/01/14 02:12:54;;;;;;;10.02;3.60;;;7.40;99.90;;;-146.68;100.00;58542.28;4860737;29;20502;-79
2023/01/14 02:16:00;;;;;;;11.57;3.05;;;7.50;99.90;;;-146.68;100.00;58542.28;4843962;29;20072;-80
2023/01/14 02:19:05;;;;;;;10.88;2.85;;;7.60;99.90;;;-146.68;100.00;58542.28;4835001;29;20053;-79
2023/01/14 02:21:39;;;;;;;14.38;3.00;;;7.50;99.90;;;-146.68;100.00;58542.28;4831260;29;20136;-79
2023/01/14 02:24:27;;;;;;;8.20;3.45;;;7.40;99.90;;;-146.68;100.00;58542.28;4844047;29;20049;-77
2023/01/14 02:27:36;;;;;;;10.95;3.20;;;7.50;99.90;;;-146.68;100.00;58542.28;4859355;29;20059;-78
2023/01/14 02:30:27;;;;;;;12.63;3.03;;;7.40;99.90;;;-146.68;100.00;58542.28;4875199;29;20049;-79
2023/01/14 02:33:25;;;;;;;12.13;3.67;;;7.40;99.90;;;-146.68;100.00;58542.28;4859769;29;20059;-78
2023/01/14 02:36:30;;;;;;;8.15;2.80;;;7.30;99.90;;;-146.68;100.00;58542.28;4859138;29;20147;-78
2023/01/14 02:39:44;;;;;;;8.88;2.80;;;7.30;99.90;;;-146.68;100.00;58542.28;4832412;29;20254;-78
2023/01/14 02:45:52;;;;;;;10.05;2.90;;;7.30;99.90;;;-146.68;100.00;58542.28;4865709;29;20463;-79
2023/01/14 02:48:25;;;;;;;12.07;3.15;;;7.20;99.90;;;-146.68;100.00;58542.28;4741827;30;20142;-78
2023/01/14 02:50:53;;;;;;;12.15;3.05;;;7.20;99.90;;;-146.68;100.00;58542.28;4821468;29;20083;-79
2023/01/14 02:53:20;;;;;;;10.70;2.88;;;8.70;99.90;;;-146.68;100.00;58542.28;4831358;29;20057;-78
2023/01/14 02:55:50;;;;;;;14.30;3.25;;;7.20;99.90;;;-146.68;100.00;58542.28;4831894;29;20060;-79
2023/01/14 02:59:05;;;;;;;9.57;2.85;;;7.10;99.90;;;-146.68;100.00;58542.28;4829625;29;20052;-78
2023/01/14 03:02:03;;;;;;;10.48;2.80;;;7.10;99.90;;;-146.68;100.00;58542.28;4836463;29;20554;-78
2023/01/14 03:05:12;;;;;;;11.07;3.90;;;7.10;99.90;;;-146.68;100.00;58542.28;4843263;29;20053;-78
2023/01/14 03:08:05;;;;;;;12.20;3.00;;;7.10;99.90;;;-146.68;100.00;58542.28;4811053;29;20550;-78
2023/01/14 03:11:04;;;;;;;13.35;3.13;;;7.10;99.90;;;-146.68;100.00;58542.28;4827581;29;20049;-79
2023/01/14 03:14:01;;;;;;;10.68;2.70;;;7.30;99.90;;;-146.68;100.00;58542.28;4809013;29;20073;-77
2023/01/14 03:16:44;;;;;;;11.32;4.07;;;7.90;99.90;;;-146.68;100.00;58542.28;4842624;29;20111;-78
2023/01/14 03:19:24;;;;;;;12.13;3.20;;;7.00;99.90;;;-146.68;100.00;58542.28;4844244;29;20057;-77
2023/01/14 03:21:57;;;;;;;10.95;3.08;;;6.90;99.90;;;-146.68;100.00;58542.28;4843448;29;20052;-79
2023/01/14 03:24:39;;;;;;;12.43;2.70;;;6.90;99.90;;;-146.68;100.00;58542.28;4843316;29;20056;-79
2023/01/14 03:27:21;;;;;;;10.75;3.95;;;6.90;99.90;;;-146.68;100.00;58542.28;4843964;29;20694;-79
2023/01/14 03:29:55;;;;;;;10.77;2.90;;;7.40;99.90;;;-146.68;100.00;58542.28;4843616;29;20076;-79
2023/01/14 03:32:34;;;;;;;13.65;3.33;;;6.90;99.90;;;-146.68;100.00;58542.28;4834014;29;20785;-79
2023/01/14 03:35:11;;;;;;;11.40;3.30;;;6.80;99.90;;;-146.68;100.00;58542.28;4832066;29;20045;-78
2023/01/14 03:37:49;;;;;;;10.10;2.92;;;6.90;99.90;;;-146.68;100.00;58542.28;4861829;29;20057;-80
2023/01/14 03:40:18;;;;;;;11.23;2.75;;;7.90;99.90;;;-146.68;100.00;58542.28;4862087;29;20176;-79
2023/01/14 03:42:57;;;;;;;11.13;3.42;;;7.00;99.90;;;-146.68;100.00;58542.28;4859469;29;20089;-79
2023/01/14 03:45:33;;;;;;;9.57;2.90;;;6.90;99.90;;;-146.68;100.00;58542.28;4877408;29;20061;-79
2023/01/14 03:48:01;;;;;;;10.48;3.10;;;6.90;99.90;;;-146.68;100.00;58542.28;4877038;29;20083;-80
2023/01/14 03:50:52;;;;;;;9.73;2.80;;;7.00;99.90;;;-146.68;100.00;58542.28;4876846;29;20061;-78
2023/01/14 03:53:31;;;;;;;9.65;2.75;;;6.90;99.90;;;-146.68;100.00;58542.28;4847000;29;20061;-78
2023/01/14 03:56:09;;;;;;;8.13;2.83;;;6.90;99.90;;;-146.68;100.00;58542.28;4878364;29;20112;-79
2023/01/14 03:58:52;;;;;;;9.02;3.42;;;6.90;99.90;;;-146.68;100.00;58542.28;4893108;29;20083;-78
2023/01/14 04:01:28;;;;;;;13.50;4.05;;;7.00;99.90;;;-146.68;100.00;58542.28;4864884;29;20506;-77
2023/01/14 04:03:57;;;;;;;13.43;3.30;;;8.70;99.90;;;-146.68;100.00;58542.28;4842593;29;20391;-78
2023/01/14 04:06:24;;;;;;;9.95;3.20;;;6.90;99.90;;;-146.68;100.00;58542.28;4843286;29;20616;-78
2023/01/14 04:08:51;;;;;;;8.52;3.22;;;7.00;99.90;;;-146.68;100.00;58542.28;4858279;29;20052;-78
2023/01/14 04:11:18;;;;;;;8.55;3.47;;;8.30;99.90;;;-146.68;100.00;58542.28;4859847;29;20057;-78
2023/01/14 04:16:31;;;;;;;11.38;3.30;;;7.40;99.90;;;-146.68;100.00;58542.28;4883618;29;20462;-77
2023/01/14 04:18:58;;;;;;;9.10;3.63;;;7.00;99.90;;;-146.68;100.00;58542.28;4894757;29;20841;-76
2023/01/14 04:21:25;;;;;;;8.25;3.45;;;7.10;99.90;;;-146.68;100.00;58542.28;4879078;29;20551;-77
2023/01/14 04:23:52;;;;;;;9.18;3.90;;;7.00;99.90;;;-146.68;100.00;58542.28;4862220;29;20410;-79
2023/01/14 04:26:19;;;;;;;12.55;3.55;;;7.00;99.90;;;-146.68;100.00;58542.28;4893767;29;20124;-77
2023/01/14 04:28:46;;;;;;;11.25;3.90;;;7.10;99.90;;;-146.68;100.00;58542.28;4877936;29;20112;-78
2023/01/14 04:31:13;;;;;;;7.60;3.25;;;8.20;99.90;;;-146.68;100.00;58542.28;4866445;29;20107;-79
2023/01/14 04:33:40;;;;;;;8.25;3.58;;;7.10;99.90;;;-146.68;100.00;58542.28;4840236;29;20057;-77
2023/01/14 04:36:08;;;;;;;6.50;4.22;;;8.90;99.90;;;-146.68;100.00;58542.28;4841464;29;20057;-79
2023/01/14 04:38:35;;;;;;;10.05;4.10;;;7.10;99.90;;;-146.68;100.00;58542.28;4857047;29;20033;-78
2023/01/14 04:41:02;;;;;;;16.45;3.53;;;8.10;99.90;;;-146.68;100.00;58542.28;4841258;29;20060;-78
2023/01/14 04:43:29;;;;;;;8.88;3.45;;;8.00;99.90;;;-146.68;100.00;58542.28;4856400;29;20068;-79
2023/01/14 04:45:56;;;;;;;8.60;3.25;;;7.90;99.90;;;-146.68;100.00;58542.28;4872538;29;20045;-79
2023/01/14 04:48:25;;;;;;;6.72;2.88;;;7.10;99.90;;;-146.68;100.00;58542.28;4872968;29;20057;-79
2023/01/14 04:50:52;;;;;;;11.75;4.82;;;8.20;99.90;;;-146.68;100.00;58542.28;4840786;29;20049;-78
2023/01/14 04:53:22;;;;;;;7.82;3.45;;;7.10;99.90;;;-146.68;100.00;58542.28;4841293;29;20049;-79
2023/01/14 04:55:53;;;;;;;7.88;2.78;;;8.40;99.90;;;-146.68;100.00;58542.28;4867123;29;20041;-79
2023/01/14 04:58:26;;;;;;;10.70;2.60;;;8.20;99.90;;;-146.68;100.00;58542.28;4862645;29;20048;-78
2023/01/14 05:00:53;;;;;;;9.95;2.88;;;8.40;99.90;;;-146.68;100.00;58542.28;4883943;29;20076;-78
2023/01/14 05:03:20;;;;;;;7.72;2.80;;;7.10;99.90;;;-146.68;100.00;58542.28;4842509;29;20052;-78
2023/01/14 05:05:47;;;;;;;10.43;3.05;;;7.20;99.90;;;-146.68;100.00;58542.28;4843427;29;20057;-78
2023/01/14 05:08:14;;;;;;;9.20;2.65;;;8.60;99.90;;;-146.68;100.00;58542.28;4859288;29;20060;-79
2023/01/14 05:10:42;;;;;;;9.27;3.13;;;8.80;99.90;;;-146.68;100.00;58542.28;4858500;29;20145;-78
2023/01/14 05:13:09;;;;;;;8.20;2.95;;;8.50;99.90;;;-146.68;100.00;58542.28;4863914;29;20363;-78
2023/01/14 05:15:40;;;;;;;9.60;3.47;;;7.30;99.90;;;-146.68;100.00;58542.28;4877126;29;20052;-78
2023/01/14 05:18:10;;;;;;;8.40;3.10;;;7.30;99.90;;;-146.68;100.00;58542.28;4877689;29;20413;-78
2023/01/14 05:20:38;;;;;;;9.38;3.38;;;7.90;99.90;;;-146.68;100.00;58542.28;4870885;29;20072;-79
2023/01/14 05:23:14;;;;;;;10.68;3.30;;;7.30;99.90;;;-146.68;100.00;58542.28;4866172;29;20065;-79
2023/01/14 05:25:42;;;;;;;6.63;2.65;;;7.30;99.90;;;-146.68;100.00;58542.28;4844179;29;20474;-78
2023/01/14 05:28:15;;;;;;;7.65;3.47;;;7.40;99.90;;;-146.68;100.00;58542.28;4860182;29;20061;-78
2023/01/14 05:30:42;;;;;;;9.35;3.08;;;7.40;99.90;;;-146.68;100.00;58542.28;4855903;29;20061;-78
2023/01/14 05:33:10;;;;;;;13.15;2.95;;;7.40;99.90;;;-146.68;100.00;58542.28;4825331;29;20061;-79
2023/01/14 05:35:37;;;;;;;9.65;2.40;;;7.40;99.90;;;-146.68;100.00;58542.28;4826511;29;20049;-79
2023/01/14 05:38:06;;;;;;;9.95;2.83;;;7.40;99.90;;;-146.68;100.00;58542.28;4835319;29;20057;-79
2023/01/14 05:40:33;;;;;;;14.15;7.57;;;7.40;99.90;;;-146.68;100.00;58542.28;4846370;29;20087;-78
2023/01/14 05:45:51;;;;;;;64.57;39.97;;;9.30;99.90;;;-146.68;100.00;58542.28;4851987;29;20053;-79
2023/01/14 05:48:24;;;;;;;15.13;8.75;;;7.50;99.90;;;-146.68;100.00;58542.28;4874149;29;20057;-78
2023/01/14 05:50:56;;;;;;;19.02;17.20;;;7.40;99.90;;;-146.68;100.00;58542.28;4843314;29;20053;-78
2023/01/14 05:53:25;;;;;;;24.52;21.15;;;7.40;99.90;;;-146.68;100.00;58542.28;4844550;29;20060;-78
2023/01/14 05:55:54;;;;;;;18.67;12.00;;;7.40;99.90;;;-146.68;100.00;58542.28;4858672;29;20562;-78
2023/01/14 05:58:22;;;;;;;20.20;15.68;;;7.40;99.90;;;-146.68;100.00;58542.28;4858361;29;20064;-77
2023/01/14 06:06:39;;;;;;;12.82;9.60;;;7.30;99.90;;;-146.68;100.00;58542.28;4858491;29;20120;-77
2023/01/14 06:09:10;;;;;;;17.05;13.85;;;7.30;99.90;;;-146.68;100.00;58542.28;4843295;29;20534;-78
2023/01/14 06:11:40;;;;;;;;;;;7.30;99.90;;;-146.68;100.00;58542.28;4842263;29;20100;-76
2023/01/14 06:14:07;;;;;;;13.88;7.57;;;7.30;99.90;;;-146.68;100.00;58542.28;4842436;29;19931;-77
2023/01/14 06:16:41;;;;;;;18.67;13.60;;;7.30;99.90;;;-146.68;100.00;58542.28;4827418;29;20063;-78
2023/01/14 06:19:11;;;;;;;21.25;10.98;;;7.30;99.90;;;-146.68;100.00;58542.28;4829012;29;20057;-78
2023/01/14 06:21:40;;;;;;;38.15;34.10;;;7.30;99.90;;;-146.68;100.00;58542.28;4827452;29;20304;-77
2023/01/14 06:24:08;;;;;;;21.47;15.77;;;7.30;99.90;;;-146.68;100.00;58542.28;4854363;29;20112;-77
2023/01/14 06:26:36;;;;;;;18.80;12.52;;;7.30;99.90;;;-146.68;100.00;58542.28;4824886;29;20293;-78
2023/01/14 06:29:11;;;;;;;48.63;41.83;;;8.80;99.90;;;-146.68;100.00;58542.28;4810858;29;20084;-79
2023/01/14 06:31:40;;;;;;;21.98;16.73;;;9.00;99.90;;;-146.68;100.00;58542.28;4816688;29;20160;-78
2023/01/14 06:34:08;;;;;;;22.75;10.43;;;8.70;99.90;;;-146.68;100.00;58542.28;4854944;29;20152;-78
2023/01/14 06:36:37;;;;;;;20.58;10.95;;;7.30;99.90;;;-146.68;100.00;58542.28;4824516;29;20045;-77
2023/01/14 06:39:05;;;;;;;25.20;16.63;;;7.20;99.90;;;-146.68;100.00;58542.28;4854718;29;20547;-79
2023/01/14 06:41:32;;;;;;;37.40;26.48;;;7.30;99.90;;;-146.68;100.00;58542.28;4824510;29;20077;-77
2023/01/14 06:43:59;;;;;;;60.58;33.63;;;7.30;99.90;;;-146.68;100.00;58542.28;4839573;29;20084;-78
2023/01/14 06:46:26;;;;;;;126.53;90.68;;;7.20;99.90;;;-146.68;100.00;58542.28;4842708;29;20095;-79
2023/01/14 06:48:53;;;;;;;195.85;146.05;;;7.30;99.90;;;-146.68;100.00;58542.28;4858204;29;20114;-78
2023/01/14 06:51:20;;;;;;;41.40;32.60;;;7.30;99.90;;;-146.68;100.00;58542.28;4808779;29;20065;-78
2023/01/14 06:53:48;;;;;;;34.45;30.83;;;9.00;99.90;;;-146.68;100.00;58542.28;4823405;29;20057;-77
2023/01/14 06:56:18;;;;;;;17.88;13.20;;;7.30;99.90;;;-146.68;100.00;58542.28;4816451;29;20132;-77
2023/01/14 06:58:49;;;;;;;19.45;11.32;;;7.40;99.90;;;-146.68;100.00;58542.28;4852108;29;20510;-77
2023/01/14 07:01:17;;;;;;;24.13;21.58;;;7.30;99.90;;;-146.68;100.00;58542.28;4865782;29;20045;-77
2023/01/14 07:03:44;;;;;;;14.95;9.85;;;7.40;99.90;;;-146.68;100.00;58542.28;4867566;29;20048;-77
2023/01/14 07:06:11;;;;;;;19.73;16.98;;;7.50;99.90;;;-146.68;100.00;58542.28;4872721;29;20057;-78
2023/01/14 07:08:38;;;;;;;14.77;10.70;;;8.80;99.90;;;-146.68;100.00;58542.28;4876538;29;20059;-77
2023/01/14 07:11:05;;;;;;;11.55;4.95;;;8.90;99.90;;;-146.68;100.00;58542.28;4852795;29;20052;-78
2023/01/14 07:13:33;;;;;;;12.52;7.10;;;7.60;99.90;;;-146.68;100.00;58542.28;4860218;29;20045;-77
2023/01/14 07:16:00;;;;;;;30.80;21.92;;;7.60;99.90;;;-146.68;100.00;58542.28;4876593;29;20060;-77
2023/01/14 07:18:28;;;;;;;19.13;10.27;;;7.70;99.90;;;-146.68;100.00;58542.28;4841906;29;20479;-77
2023/01/14 07:20:57;;;;;;;23.48;11.50;;;7.70;99.90;;;-146.68;100.00;58542.28;4873268;29;20055;-78
2023/01/14 07:23:25;;;;;;;19.85;11.15;;;8.60;99.90;;;-146.68;100.00;58542.28;4877624;29;20463;-78
2023/01/14 07:25:55;;;;;;;27.27;16.52;;;7.80;99.90;;;-146.68;100.00;58542.28;4864543;29;20045;-78
2023/01/14 07:28:25;;;;;;;16.70;6.93;;;7.80;99.90;;;-146.68;100.00;58542.28;4879985;29;20514;-77
2023/01/14 07:30:52;;;;;;;22.75;12.18;;;7.90;99.90;;;-146.68;100.00;58542.28;4880714;29;20051;-77
2023/01/14 07:33:21;;;;;;;25.52;14.52;;;7.90;99.90;;;-146.68;100.00;58542.28;4847429;29;20041;-76
2023/01/14 07:35:52;;;;;;;23.13;11.93;;;7.80;99.90;;;-146.68;100.00;58542.28;4852098;29;20057;-77
2023/01/14 07:38:21;;;;;;;16.77;8.57;;;7.80;99.90;;;-146.68;100.00;58542.28;4848357;29;20052;-78
2023/01/14 07:40:49;;;;;;;12.57;6.60;;;8.90;99.90;;;-146.68;100.00;58542.28;4863286;29;20097;-77
2023/01/14 07:43:16;;;;;;;15.25;9.02;;;7.90;99.90;;;-146.68;100.00;58542.28;4861994;29;20037;-78
2023/01/14 07:45:43;;;;;;;15.15;9.13;;;7.90;99.90;;;-146.68;100.00;58542.28;4848645;29;20097;-78
2023/01/14 07:48:11;;;;;;;13.73;8.43;;;8.30;99.90;;;-146.68;100.00;58542.28;4862449;29;20064;-77
2023/01/14 07:50:38;;;;;;;214.80;150.25;;;7.90;99.90;;;-146.68;100.00;58542.28;4846466;29;20297;-77
2023/01/14 07:53:05;;;;;;;338.23;224.95;;;8.00;99.90;;;-146.68;100.00;58542.28;4850837;29;20140;-77
2023/01/14 07:55:35;;;;;;;91.50;59.13;;;7.90;99.90;;;-146.68;100.00;58542.28;4850311;29;20064;-78
2023/01/14 07:58:02;;;;;;;;;;;8.00;99.90;;;-146.68;100.00;58542.28;4855252;29;20052;-77
2023/01/14 08:00:30;;;;;;;19.38;9.40;;;7.90;99.90;;;-146.68;100.00;58542.28;4857598;29;20384;-77
2023/01/14 08:02:57;;;;;;;43.00;23.80;;;9.60;99.90;;;-146.68;100.00;58542.28;4870277;29;20142;-77
2023/01/14 08:05:24;;;;;;;29.17;17.15;;;8.00;99.90;;;-146.68;100.00;58542.28;4870587;29;20064;-77
2023/01/14 08:07:51;;;;;;;16.65;9.23;;;8.40;99.90;;;-146.68;100.00;58542.28;4844770;29;20049;-77
2023/01/14 08:10:19;;;;;;;12.18;9.23;;;8.70;99.90;;;-146.68;100.00;58542.28;4860136;29;20052;-77
2023/01/14 08:12:46;;;;;;;14.18;6.30;;;8.80;99.90;;;-146.68;100.00;58542.28;4844681;29;20041;-77
2023/01/14 08:15:13;;;;;;;15.65;5.57;;;8.90;99.90;;;-146.68;100.00;58542.28;4830437;29;20084;-78
2023/01/14 08:17:40;;;;;;;13.85;6.70;;;7.90;99.90;;;-146.68;100.00;58542.28;4860920;29;20060;-77
2023/01/14 08:20:09;;;;;;;18.20;9.35;;;8.00;99.90;;;-146.68;100.00;58542.28;4860061;29;20499;-78
2023/01/14 08:22:37;;;;;;;23.23;12.50;;;8.00;99.90;;;-146.68;100.00;58542.28;4862907;29;20053;-78
2023/01/14 08:25:06;;;;;;;20.27;11.57;;;8.10;99.90;;;-146.68;100.00;58542.28;4860877;29;20562;-76
2023/01/14 08:27:33;;;;;;;17.48;8.25;;;8.20;99.90;;;-146.68;100.00;58542.28;4860835;29;20495;-78
2023/01/14 08:30:00;;;;;;;14.20;6.75;;;8.10;99.90;;;-146.68;100.00;58542.28;4859963;29;20519;-77
2023/01/14 08:32:27;;;;;;;19.00;7.53;;;8.10;99.90;;;-146.68;100.00;58542.28;4841926;29;20050;-77
2023/01/14 08:34:54;;;;;;;10.70;5.55;;;8.10;99.90;;;-146.68;100.00;58542.28;4855643;29;20049;-77
2023/01/14 08:37:22;;;;;;;18.75;6.63;;;8.80;99.90;;;-146.68;100.00;58542.28;4856898;29;20053;-77
2023/01/14 08:39:49;;;;;;;15.00;5.70;;;8.20;99.90;;;-146.68;100.00;58542.28;4857160;29;20045;-77
2023/01/14 08:42:17;;;;;;;10.80;4.90;;;9.40;99.90;;;-146.68;100.00;58542.28;4856610;29;20050;-78
2023/01/14 08:44:44;;;;;;;15.05;6.30;;;8.50;99.90;;;-146.68;100.00;58542.28;4862889;29;20061;-78
2023/01/14 08:47:11;;;;;;;16.65;6.75;;;8.30;99.90;;;-146.68;100.00;58542.28;4845060;29;20065;-78
2023/01/14 08:49:38;;;;;;;10.55;4.82;;;8.30;99.90;;;-146.68;100.00;58542.28;4859657;29;20517;-77
2023/01/14 08:52:05;;;;;;;11.55;4.40;;;8.30;99.90;;;-146.68;100.00;58542.28;4860217;29;20057;-77
2023/01/14 08:54:32;;;;;;;10.68;4.70;;;8.40;99.90;;;-146.68;100.00;58542.28;4829091;29;20081;-76
2023/01/14 08:56:59;;;;;;;9.88;4.20;;;8.40;99.90;;;-146.68;100.00;58542.28;4881209;29;20231;-76
2023/01/14 08:59:26;;;;;;;9.98;4.07;;;8.40;99.90;;;-146.68;100.00;58542.28;4869089;29;20620;-77
2023/01/14 09:01:54;;;;;;;12.38;3.78;;;8.40;99.90;;;-146.68;100.00;58542.28;4864782;29;20497;-78
2023/01/14 09:04:24;;;;;;;8.35;3.58;;;8.50;99.90;;;-146.68;100.00;58542.28;4845588;29;20422;-77
2023/01/14 09:18:03;;;;;;;11.60;3.53;;;8.60;99.90;;;-146.68;100.00;58542.28;4857963;29;20045;-79
2023/01/14 09:20:36;;;;;;;10.95;3.20;;;8.70;99.90;;;-146.68;100.00;58542.28;4845392;29;20045;-79
2023/01/14 09:23:09;;;;;;;16.20;3.80;;;8.70;99.90;;;-146.68;100.00;58542.28;4841411;29;20059;-80
2023/01/14 09:25:37;;;;;;;12.45;4.00;;;9.60;99.90;;;-146.68;100.00;58542.28;4878869;29;20045;-77
2023/01/14 09:28:07;;;;;;;13.05;4.15;;;10.40;99.90;;;-146.68;100.00;58542.28;4862902;29;20502;-80
2023/01/14 09:30:37;;;;;;;10.00;4.35;;;9.90;99.90;;;-146.68;100.00;58542.28;4877162;29;20163;-77
2023/01/14 09:33:07;;;;;;;13.00;5.05;;;9.90;99.90;;;-146.68;100.00;58542.28;4860383;29;20053;-77
2023/01/14 09:35:34;;;;;;;14.38;6.70;;;8.90;99.90;;;-146.68;100.00;58542.28;4855399;29;20060;-78
2023/01/14 09:38:01;;;;;;;12.75;4.30;;;8.90;99.90;;;-146.68;100.00;58542.28;4847653;29;20097;-79
2023/01/14 09:40:28;;;;;;;17.38;5.45;;;9.00;99.90;;;-146.68;100.00;58542.28;4862988;29;20053;-78
2023/01/14 09:42:57;;;;;;;10.93;4.07;;;9.80;99.90;;;-146.68;100.00;58542.28;4862489;29;20101;-80
2023/01/14 09:45:32;;;;;;;9.18;3.85;;;9.00;99.90;;;-146.68;100.00;58542.28;4878413;29;20048;-80
2023/01/14 09:48:23;;;;;;;8.38;4.45;;;9.10;99.90;;;-146.68;100.00;58542.28;4870620;29;20054;-81
2023/01/14 09:51:35;;;;;;;10.75;3.08;;;9.20;99.90;;;-146.68;100.00;58542.28;4875468;29;20053;-78
2023/01/14 09:54:42;;;;;;;7.05;2.92;;;9.20;99.90;;;-146.68;100.00;58542.28;4844626;29;20045;-77
2023/01/14 09:57:20;;;;;;;8.68;2.83;;;9.20;99.90;;;-146.68;100.00;58542.28;4864116;29;20056;-80
2023/01/14 10:00:00;;;;;;;6.95;3.00;;;9.30;99.90;;;-146.68;100.00;58542.28;4852656;29;20131;-80
2023/01/14 10:03:13;;;;;;;7.95;3.25;;;9.30;99.90;;;-146.68;100.00;58542.28;4853098;29;20045;-77
2023/01/14 10:05:45;;;;;;;7.90;2.75;;;9.30;99.90;;;-146.68;100.00;58542.28;4819453;29;20170;-79
2023/01/14 10:08:14;;;;;;;;;;;9.40;99.90;;;-146.68;100.00;58542.28;4809599;29;20081;-79
2023/01/14 10:10:45;;;;;;;7.63;3.33;;;9.40;99.90;;;-146.68;100.00;58542.28;4830819;29;19925;-82
2023/01/14 10:13:39;;;;;;;10.88;3.92;;;9.50;99.90;;;-146.68;100.00;58542.28;4833575;29;20299;-78
2023/01/14 10:16:21;;;;;;;8.35;3.30;;;9.60;99.90;;;-146.68;100.00;58542.28;4810816;29;20081;-76
2023/01/14 10:19:51;;;;;;;8.32;3.75;;;9.50;99.90;;;-146.68;100.00;58542.28;4826293;29;20057;-78
2023/01/14 10:22:42;;;;;;;10.32;4.70;;;9.60;99.90;;;-146.68;100.00;58542.28;4766738;30;20147;-78
2023/01/14 10:25:19;;;;;;;7.28;3.42;;;9.80;99.90;;;-146.68;100.00;58542.28;4840386;29;20064;-77
2023/01/14 10:27:59;;;;;;;6.20;3.00;;;9.90;99.90;;;-146.68;100.00;58542.28;4840031;29;20049;-78
2023/01/14 10:30:33;;;;;;;5.60;2.55;;;10.70;99.90;;;-146.68;100.00;58542.28;4839206;29;20060;-79
2023/01/14 10:33:06;;;;;;;8.02;4.38;;;9.90;99.90;;;-146.68;100.00;58542.28;4837993;29;20065;-78
2023/01/14 10:35:39;;;;;;;7.53;3.92;;;9.90;99.90;;;-146.68;100.00;58542.28;4823209;29;20090;-77
2023/01/14 10:38:08;;;;;;;4.40;2.85;;;10.00;99.70;;;-146.68;100.00;58542.28;4845981;29;20096;-80
2023/01/14 10:40:36;;;;;;;7.68;4.60;;;10.00;99.60;;;-146.68;100.00;58542.28;4809011;29;20055;-79
2023/01/14 10:43:03;;;;;;;8.10;3.97;;;10.00;99.70;;;-146.68;100.00;58542.28;4859462;29;20558;-80
2023/01/14 10:45:31;;;;;;;5.68;3.15;;;10.00;99.60;;;-146.68;100.00;58542.28;4843647;29;20049;-79
2023/01/14 10:48:03;;;;;;;8.40;3.20;;;11.10;99.60;;;-146.68;100.00;58542.28;4843679;29;20053;-80
2023/01/14 10:50:31;;;;;;;6.53;3.05;;;10.00;99.60;;;-146.68;100.00;58542.28;4867684;29;20049;-80
2023/01/14 10:53:24;;;;;;;5.95;3.22;;;10.90;99.70;;;-146.68;100.00;58542.28;4858245;29;20073;-80